Back to Top

Language: 

My Weather Underground Personal Weather Station Historical Data with Graphs...

Delerius Weather Station Historical Data
Daily Summary for December 5, 2017 Units:  Metric    English   Both
« Previous Day
Next Day »
Daily Weekly Monthly Yearly Custom
  High: Low: Average:
Temperature: 8.6 °C 7 °C 7.8 °C
Dew Point: 6.2 °C 3.7 °C 4.9 °C
Humidity: 86 % 77 % 82 %
Wind Speed: 27.4 km/h 4.8 km/h 15.3 km/h
Wind Gust: 46.7 km/h - -
Wind:- - West
Pressure: 1033.4 hPa 1028.3 hPa -
Precipitation: 0 mm    
Historical Graphs
 
 
Tabular Data for December 5, 2017
Time Temperature Dew Point Pressure Wind Wind Speed Wind Gust Humidity Rainfall Rate (Hourly) solar Conditions
00:00 8.3 °C 5.9 °C 1033.4 hPa West 11.3 km/h 17.7 km/h 85 % 0 mm 0 W/m2
00:05 8.3 °C 5.9 °C 1033.4 hPa West 9.7 km/h 14.5 km/h 85 % 0 mm 0 W/m2
00:10 8.4 °C 6 °C 1033.4 hPa West 9.7 km/h 14.5 km/h 85 % 0 mm 0 W/m2
00:15 8.4 °C 6 °C 1033.4 hPa West 11.3 km/h 17.7 km/h 85 % 0 mm 0 W/m2
00:20 8.4 °C 6 °C 1033.1 hPa West 12.9 km/h 20.9 km/h 85 % 0 mm 0 W/m2
00:25 8.4 °C 6 °C 1033.1 hPa WNW 16.1 km/h 22.5 km/h 85 % 0 mm 0 W/m2
00:30 8.5 °C 6.1 °C 1033.1 hPa WNW 16.1 km/h 25.7 km/h 85 % 0 mm 0 W/m2
00:35 8.6 °C 6.2 °C 1033.1 hPa WNW 12.9 km/h 20.9 km/h 85 % 0 mm 0 W/m2
00:40 8.6 °C 6.1 °C 1033.1 hPa WNW 16.1 km/h 25.7 km/h 84 % 0 mm 0 W/m2
00:45 8.6 °C 6.1 °C 1033.1 hPa WNW 17.7 km/h 25.7 km/h 84 % 0 mm 0 W/m2
00:50 8.5 °C 5.9 °C 1032.7 hPa WNW 16.1 km/h 24.1 km/h 84 % 0 mm 0 W/m2
00:55 8.5 °C 5.9 °C 1032.7 hPa WNW 17.7 km/h 29 km/h 84 % 0 mm 0 W/m2
01:00 8.5 °C 6.1 °C 1032.7 hPa WNW 14.5 km/h 22.5 km/h 85 % 0 mm 0 W/m2
01:05 8.4 °C 6 °C 1032.7 hPa WNW 16.1 km/h 22.5 km/h 85 % 0 mm 0 W/m2
01:10 8.4 °C 5.8 °C 1032.7 hPa West 14.5 km/h 24.1 km/h 84 % 0 mm 0 W/m2
01:15 8.4 °C 5.8 °C 1033.1 hPa West 11.3 km/h 17.7 km/h 84 % 0 mm 0 W/m2
01:20 8.4 °C 6 °C 1033.1 hPa West 11.3 km/h 17.7 km/h 85 % 0 mm 0 W/m2
01:25 8.4 °C 6 °C 1032.7 hPa West 11.3 km/h 20.9 km/h 85 % 0 mm 0 W/m2
01:30 8.4 °C 6 °C 1032.7 hPa West 12.9 km/h 22.5 km/h 85 % 0 mm 0 W/m2
01:35 8.4 °C 6 °C 1032.7 hPa West 12.9 km/h 19.3 km/h 85 % 0 mm 0 W/m2
01:40 8.3 °C 5.9 °C 1032.7 hPa West 14.5 km/h 20.9 km/h 85 % 0 mm 0 W/m2
01:45 8.4 °C 6 °C 1032.7 hPa West 16.1 km/h 29 km/h 85 % 0 mm 0 W/m2
01:50 8.4 °C 6 °C 1032.7 hPa West 12.9 km/h 20.9 km/h 85 % 0 mm 0 W/m2
01:55 8.4 °C 6 °C 1033.1 hPa West 12.9 km/h 19.3 km/h 85 % 0 mm 0 W/m2
02:00 8.4 °C 6 °C 1033.1 hPa WNW 16.1 km/h 25.7 km/h 85 % 0 mm 0 W/m2
02:05 8.4 °C 6 °C 1032.7 hPa WNW 14.5 km/h 24.1 km/h 85 % 0 mm 0 W/m2
02:10 8.4 °C 6 °C 1032.7 hPa WNW 17.7 km/h 24.1 km/h 85 % 0 mm 0 W/m2
02:15 8.4 °C 6 °C 1032.7 hPa WNW 14.5 km/h 29 km/h 85 % 0 mm 0 W/m2
02:16 8.4 °C 6 °C 1032.7 hPa WNW 14.5 km/h 19.3 km/h 85 % 0 mm 0 W/m2
02:21 8.4 °C 6.2 °C 1032.7 hPa WNW 19.3 km/h 32.2 km/h 86 % 0 mm 0 W/m2
02:26 8.4 °C 6.2 °C 1032.7 hPa West 14.5 km/h 22.5 km/h 86 % 0 mm 0 W/m2
02:31 8.4 °C 6.2 °C 1032.7 hPa West 16.1 km/h 24.1 km/h 86 % 0 mm 0 W/m2
02:36 8.3 °C 6.1 °C 1032.7 hPa WNW 12.9 km/h 19.3 km/h 86 % 0 mm 0 W/m2
02:41 8.3 °C 6.1 °C 1032.7 hPa WNW 14.5 km/h 20.9 km/h 86 % 0 mm 0 W/m2
02:46 8.3 °C 6.1 °C 1032.7 hPa WNW 16.1 km/h 24.1 km/h 86 % 0 mm 0 W/m2
02:51 8.2 °C 6 °C 1032.7 hPa WNW 20.9 km/h 30.6 km/h 86 % 0 mm 0 W/m2
02:56 8.3 °C 6.1 °C 1032.7 hPa West 17.7 km/h 25.7 km/h 86 % 0 mm 0 W/m2
03:01 8.3 °C 5.9 °C 1032.7 hPa West 17.7 km/h 29 km/h 85 % 0 mm 0 W/m2
03:06 8.3 °C 5.9 °C 1032.7 hPa WNW 16.1 km/h 25.7 km/h 85 % 0 mm 0 W/m2
03:11 8.3 °C 5.9 °C 1032.7 hPa WNW 11.3 km/h 20.9 km/h 85 % 0 mm 0 W/m2
03:16 8.3 °C 5.9 °C 1032.7 hPa WNW 12.9 km/h 17.7 km/h 85 % 0 mm 0 W/m2
03:21 8.3 °C 5.9 °C 1032.7 hPa WNW 17.7 km/h 30.6 km/h 85 % 0 mm 0 W/m2
03:26 8.3 °C 5.9 °C 1032.7 hPa West 16.1 km/h 30.6 km/h 85 % 0 mm 0 W/m2
03:31 8.3 °C 5.9 °C 1032.7 hPa WNW 16.1 km/h 29 km/h 85 % 0 mm 0 W/m2
03:36 8.3 °C 6.1 °C 1032.7 hPa WNW 14.5 km/h 22.5 km/h 86 % 0 mm 0 W/m2
03:41 8.2 °C 6 °C 1032.7 hPa WNW 16.1 km/h 24.1 km/h 86 % 0 mm 0 W/m2
03:46 8.2 °C 5.8 °C 1032.7 hPa WNW 22.5 km/h 32.2 km/h 85 % 0 mm 0 W/m2
03:51 8.2 °C 5.8 °C 1032.7 hPa WNW 17.7 km/h 25.7 km/h 85 % 0 mm 0 W/m2
03:56 8.1 °C 5.6 °C 1032.7 hPa WNW 16.1 km/h 30.6 km/h 84 % 0 mm 0 W/m2
04:01 8.1 °C 5.6 °C 1032.7 hPa WNW 14.5 km/h 20.9 km/h 84 % 0 mm 0 W/m2
04:06 8.1 °C 5.6 °C 1032.7 hPa WNW 14.5 km/h 22.5 km/h 84 % 0 mm 0 W/m2
04:11 8.1 °C 5.6 °C 1032.7 hPa WNW 20.9 km/h 30.6 km/h 84 % 0 mm 0 W/m2
04:16 8.1 °C 5.6 °C 1032.7 hPa WNW 16.1 km/h 24.1 km/h 84 % 0 mm 0 W/m2
04:21 8.1 °C 5.6 °C 1032.7 hPa WNW 16.1 km/h 24.1 km/h 84 % 0 mm 0 W/m2
04:26 8.1 °C 5.6 °C 1032.7 hPa WNW 16.1 km/h 25.7 km/h 84 % 0 mm 0 W/m2
04:31 8.1 °C 5.6 °C 1033.1 hPa West 16.1 km/h 25.7 km/h 84 % 0 mm 0 W/m2
04:36 8.1 °C 5.6 °C 1032.7 hPa West 16.1 km/h 32.2 km/h 84 % 0 mm 0 W/m2
04:41 8.1 °C 5.6 °C 1033.1 hPa West 17.7 km/h 30.6 km/h 84 % 0 mm 0 W/m2
04:46 8 °C 5.4 °C 1033.1 hPa West 14.5 km/h 22.5 km/h 84 % 0 mm 0 W/m2
04:51 8 °C 5.3 °C 1033.1 hPa West 16.1 km/h 24.1 km/h 83 % 0 mm 0 W/m2
04:56 8 °C 5.3 °C 1033.1 hPa WNW 14.5 km/h 20.9 km/h 83 % 0 mm 0 W/m2
05:01 8 °C 5.3 °C 1033.1 hPa West 16.1 km/h 22.5 km/h 83 % 0 mm 0 W/m2
05:02 8 °C 5.4 °C 1033.1 hPa West 16.1 km/h 22.5 km/h 84 % 0 mm 0 W/m2
05:07 8 °C 5.4 °C 1032.7 hPa West 12.9 km/h 19.3 km/h 84 % 0 mm 0 W/m2
05:12 8 °C 5.4 °C 1032.7 hPa WNW 14.5 km/h 22.5 km/h 84 % 0 mm 0 W/m2
05:17 8 °C 5.4 °C 1032.7 hPa WNW 12.9 km/h 24.1 km/h 84 % 0 mm 0 W/m2
05:22 7.9 °C 5.4 °C 1032.7 hPa WNW 14.5 km/h 20.9 km/h 84 % 0 mm 0 W/m2
05:27 7.9 °C 5.2 °C 1032.7 hPa WNW 12.9 km/h 22.5 km/h 83 % 0 mm 0 W/m2
05:32 7.9 °C 5.2 °C 1032.7 hPa WNW 11.3 km/h 17.7 km/h 83 % 0 mm 0 W/m2
05:37 7.9 °C 5.2 °C 1032.4 hPa WNW 16.1 km/h 22.5 km/h 83 % 0 mm 0 W/m2
05:42 7.9 °C 5.2 °C 1032.4 hPa WNW 11.3 km/h 16.1 km/h 83 % 0 mm 0 W/m2
05:47 7.9 °C 5.2 °C 1032.7 hPa WNW 11.3 km/h 16.1 km/h 83 % 0 mm 0 W/m2
05:52 7.9 °C 5.2 °C 1032.7 hPa WNW 12.9 km/h 20.9 km/h 83 % 0 mm 0 W/m2
05:57 7.9 °C 5.4 °C 1032.7 hPa WNW 11.3 km/h 22.5 km/h 84 % 0 mm 0 W/m2
06:02 7.9 °C 5.4 °C 1032.7 hPa WNW 14.5 km/h 29 km/h 84 % 0 mm 0 W/m2
06:07 7.9 °C 5.4 °C 1032.7 hPa WNW 12.9 km/h 19.3 km/h 84 % 0 mm 0 W/m2
06:12 7.9 °C 5.2 °C 1032.7 hPa WNW 12.9 km/h 17.7 km/h 83 % 0 mm 0 W/m2
06:17 7.9 °C 5.2 °C 1032.7 hPa West 14.5 km/h 19.3 km/h 83 % 0 mm 0 W/m2
06:22 7.9 °C 5.2 °C 1032.7 hPa West 12.9 km/h 17.7 km/h 83 % 0 mm 0 W/m2
06:27 7.9 °C 5.2 °C 1032.7 hPa West 14.5 km/h 25.7 km/h 83 % 0 mm 0 W/m2
06:32 7.9 °C 5.2 °C 1032.7 hPa West 12.9 km/h 19.3 km/h 83 % 0 mm 0 W/m2
06:37 7.9 °C 5.2 °C 1032.7 hPa WNW 17.7 km/h 24.1 km/h 83 % 0 mm 0 W/m2
06:42 7.9 °C 5.2 °C 1032.7 hPa WNW 17.7 km/h 30.6 km/h 83 % 0 mm 0 W/m2
06:47 7.9 °C 5.2 °C 1032.4 hPa WNW 16.1 km/h 25.7 km/h 83 % 0 mm 0 W/m2
06:52 7.8 °C 5.1 °C 1032.7 hPa WNW 11.3 km/h 19.3 km/h 83 % 0 mm 0 W/m2
06:57 7.8 °C 5.1 °C 1032.7 hPa West 12.9 km/h 20.9 km/h 83 % 0 mm 0 W/m2
07:02 7.8 °C 5.1 °C 1032.7 hPa WNW 16.1 km/h 32.2 km/h 83 % 0 mm 0 W/m2
07:07 7.8 °C 5.1 °C 1032.7 hPa WNW 12.9 km/h 20.9 km/h 83 % 0 mm 0 W/m2
07:10 7.8 °C 5.1 °C 1032.7 hPa WNW 14.5 km/h 22.5 km/h 83 % 0 mm 0 W/m2
07:15 7.8 °C 5.1 °C 1032.7 hPa West 12.9 km/h 20.9 km/h 83 % 0 mm 0 W/m2
07:20 7.8 °C 5.1 °C 1032.7 hPa West 16.1 km/h 24.1 km/h 83 % 0 mm 0 W/m2
07:25 7.8 °C 5.1 °C 1032.7 hPa West 17.7 km/h 32.2 km/h 83 % 0 mm 0 W/m2
07:30 7.8 °C 5.1 °C 1032.7 hPa West 17.7 km/h 29 km/h 83 % 0 mm 0 W/m2
07:35 7.8 °C 5.1 °C 1032.7 hPa West 16.1 km/h 25.7 km/h 83 % 0 mm 0 W/m2
07:40 7.8 °C 5.1 °C 1032.7 hPa West 17.7 km/h 24.1 km/h 83 % 0 mm 0 W/m2
07:41 7.8 °C 5.1 °C 1032.7 hPa West 17.7 km/h 25.7 km/h 83 % 0 mm 0 W/m2
07:46 7.9 °C 5.2 °C 1032.7 hPa West 20.9 km/h 32.2 km/h 83 % 0 mm 0 W/m2
07:51 7.8 °C 4.9 °C 1032.7 hPa West 22.5 km/h 32.2 km/h 82 % 0 mm 0 W/m2
08:01 7.8 °C 4.9 °C 1032.7 hPa West 17.7 km/h 24.1 km/h 82 % 0 mm 0 W/m2
08:06 7.8 °C 4.9 °C 1032.7 hPa West 17.7 km/h 25.7 km/h 82 % 0 mm 0 W/m2
08:11 7.8 °C 4.7 °C 1032.7 hPa West 24.1 km/h 38.6 km/h 81 % 0 mm 0 W/m2
08:16 7.8 °C 4.7 °C 1032.7 hPa West 24.1 km/h 33.8 km/h 81 % 0 mm 0 W/m2
08:21 7.9 °C 4.8 °C 1032.7 hPa West 22.5 km/h 37 km/h 81 % 0 mm 7 W/m2
08:31 7.9 °C 4.8 °C 1032.7 hPa West 25.7 km/h 35.4 km/h 81 % 0 mm 9 W/m2
08:36 7.9 °C 5 °C 1032.7 hPa West 17.7 km/h 25.7 km/h 82 % 0 mm 9 W/m2
08:41 7.9 °C 5 °C 1032.7 hPa West 19.3 km/h 29 km/h 82 % 0 mm 11 W/m2
08:46 7.8 °C 4.9 °C 1032.7 hPa WNW 27.4 km/h 46.7 km/h 82 % 0 mm 11 W/m2
08:48 7.8 °C 4.9 °C 1032.7 hPa WNW 27.4 km/h 46.7 km/h 82 % 0 mm 11 W/m2
08:53 7.8 °C 4.9 °C 1032.7 hPa West 27.4 km/h 40.2 km/h 82 % 0 mm 11 W/m2
08:58 7.8 °C 4.9 °C 1032.7 hPa West 22.5 km/h 33.8 km/h 82 % 0 mm 12 W/m2
09:03 7.8 °C 4.9 °C 1032.7 hPa WNW 17.7 km/h 32.2 km/h 82 % 0 mm 14 W/m2
09:08 7.8 °C 5.1 °C 1032.4 hPa WNW 19.3 km/h 35.4 km/h 83 % 0 mm 16 W/m2
09:13 7.8 °C 5.1 °C 1032.4 hPa West 20.9 km/h 30.6 km/h 83 % 0 mm 14 W/m2
09:18 7.8 °C 5.1 °C 1032.4 hPa West 20.9 km/h 32.2 km/h 83 % 0 mm 14 W/m2
09:23 7.8 °C 5.1 °C 1032.4 hPa West 17.7 km/h 30.6 km/h 83 % 0 mm 18 W/m2
09:28 7.8 °C 5.1 °C 1032.4 hPa WNW 20.9 km/h 32.2 km/h 83 % 0 mm 16 W/m2
09:33 7.8 °C 5.1 °C 1032.7 hPa West 24.1 km/h 33.8 km/h 83 % 0 mm 23 W/m2
09:38 7.8 °C 5.1 °C 1032.4 hPa West 16.1 km/h 30.6 km/h 83 % 0 mm 23 W/m2
09:43 7.8 °C 5.1 °C 1032.4 hPa West 19.3 km/h 33.8 km/h 83 % 0 mm 26 W/m2
09:48 7.8 °C 5.1 °C 1032.4 hPa West 19.3 km/h 29 km/h 83 % 0 mm 21 W/m2
09:53 7.8 °C 5.1 °C 1032.4 hPa West 19.3 km/h 30.6 km/h 83 % 0 mm 19 W/m2
09:58 7.8 °C 5.1 °C 1032.4 hPa West 14.5 km/h 22.5 km/h 83 % 0 mm 16 W/m2
10:03 7.8 °C 5.1 °C 1032.4 hPa West 11.3 km/h 17.7 km/h 83 % 0 mm 16 W/m2
10:08 7.8 °C 5.3 °C 1032.4 hPa West 11.3 km/h 22.5 km/h 84 % 0 mm 26 W/m2
10:13 7.8 °C 5.3 °C 1032.4 hPa West 20.9 km/h 35.4 km/h 84 % 0 mm 30 W/m2
10:18 7.7 °C 5.2 °C 1032.4 hPa West 19.3 km/h 30.6 km/h 84 % 0 mm 44 W/m2
10:23 7.8 °C 5.3 °C 1032.4 hPa West 20.9 km/h 29 km/h 84 % 0 mm 53 W/m2
10:28 7.8 °C 5.3 °C 1032.4 hPa West 17.7 km/h 29 km/h 84 % 0 mm 58 W/m2
10:33 7.8 °C 5.1 °C 1032.4 hPa West 16.1 km/h 24.1 km/h 83 % 0 mm 70 W/m2
10:38 7.8 °C 5.1 °C 1032.4 hPa West 19.3 km/h 30.6 km/h 83 % 0 mm 77 W/m2
10:43 7.8 °C 5.1 °C 1032.4 hPa West 22.5 km/h 33.8 km/h 83 % 0 mm 56 W/m2
10:48 7.8 °C 4.9 °C 1032.4 hPa West 17.7 km/h 30.6 km/h 82 % 0 mm 51 W/m2
10:53 7.8 °C 4.9 °C 1032.4 hPa West 17.7 km/h 25.7 km/h 82 % 0 mm 54 W/m2
10:58 7.8 °C 4.9 °C 1032.4 hPa West 11.3 km/h 17.7 km/h 82 % 0 mm 53 W/m2
11:03 7.9 °C 5 °C 1032.4 hPa West 20.9 km/h 30.6 km/h 82 % 0 mm 54 W/m2
11:08 7.9 °C 4.8 °C 1032.4 hPa West 16.1 km/h 25.7 km/h 81 % 0 mm 56 W/m2
11:13 7.9 °C 4.8 °C 1032.4 hPa West 17.7 km/h 25.7 km/h 81 % 0 mm 62 W/m2
11:23 7.9 °C 4.8 °C 1032.1 hPa West 19.3 km/h 29 km/h 81 % 0 mm 69 W/m2
11:28 8 °C 4.9 °C 1032.4 hPa West 16.1 km/h 29 km/h 81 % 0 mm 69 W/m2
11:33 8 °C 4.9 °C 1032.4 hPa West 17.7 km/h 25.7 km/h 81 % 0 mm 69 W/m2
11:38 8 °C 4.8 °C 1032.4 hPa West 20.9 km/h 33.8 km/h 80 % 0 mm 63 W/m2
11:43 7.9 °C 4.7 °C 1032.1 hPa West 20.9 km/h 32.2 km/h 80 % 0 mm 62 W/m2
11:48 7.9 °C 4.7 °C 1032.1 hPa West 16.1 km/h 22.5 km/h 80 % 0 mm 60 W/m2
11:53 7.9 °C 4.7 °C 1032.1 hPa West 9.7 km/h 19.3 km/h 80 % 0 mm 62 W/m2
11:58 7.9 °C 4.7 °C 1032.1 hPa West 22.5 km/h 33.8 km/h 80 % 0 mm 69 W/m2
12:03 7.9 °C 4.7 °C 1032.1 hPa West 11.3 km/h 17.7 km/h 80 % 0 mm 76 W/m2
12:08 7.9 °C 4.7 °C 1032.1 hPa West 12.9 km/h 22.5 km/h 80 % 0 mm 72 W/m2
12:13 7.9 °C 4.5 °C 1032.1 hPa West 20.9 km/h 33.8 km/h 79 % 0 mm 65 W/m2
12:18 7.9 °C 4.5 °C 1032.1 hPa WNW 16.1 km/h 32.2 km/h 79 % 0 mm 88 W/m2
12:23 8.1 °C 4.7 °C 1032.1 hPa West 17.7 km/h 25.7 km/h 79 % 0 mm 100 W/m2
12:28 8.1 °C 4.5 °C 1032.1 hPa West 20.9 km/h 37 km/h 78 % 0 mm 97 W/m2
12:34 8 °C 4.2 °C 1031.7 hPa West 25.7 km/h 41.8 km/h 77 % 0 mm 72 W/m2
12:39 7.9 °C 4.3 °C 1031.7 hPa West 20.9 km/h 32.2 km/h 78 % 0 mm 70 W/m2
12:44 7.9 °C 4.3 °C 1031.7 hPa West 16.1 km/h 25.7 km/h 78 % 0 mm 62 W/m2
12:49 7.8 °C 4.2 °C 1031.7 hPa West 24.1 km/h 40.2 km/h 78 % 0 mm 74 W/m2
12:54 7.8 °C 4.2 °C 1031.7 hPa West 19.3 km/h 33.8 km/h 78 % 0 mm 91 W/m2
12:59 7.8 °C 4.2 °C 1031.7 hPa West 19.3 km/h 32.2 km/h 78 % 0 mm 81 W/m2
13:04 7.8 °C 4 °C 1031.7 hPa West 14.5 km/h 33.8 km/h 77 % 0 mm 83 W/m2
13:09 7.8 °C 4 °C 1031.7 hPa West 17.7 km/h 33.8 km/h 77 % 0 mm 83 W/m2
13:14 7.8 °C 4 °C 1031.7 hPa West 11.3 km/h 30.6 km/h 77 % 0 mm 72 W/m2
13:19 7.9 °C 4.1 °C 1031.7 hPa West 16.1 km/h 30.6 km/h 77 % 0 mm 70 W/m2
13:24 7.9 °C 4.3 °C 1031.7 hPa West 12.9 km/h 22.5 km/h 78 % 0 mm 63 W/m2
13:29 7.9 °C 4.3 °C 1031.7 hPa West 17.7 km/h 29 km/h 78 % 0 mm 65 W/m2
13:34 7.8 °C 4.2 °C 1031.7 hPa West 12.9 km/h 20.9 km/h 78 % 0 mm 63 W/m2
13:39 7.8 °C 4.2 °C 1031.7 hPa West 16.1 km/h 32.2 km/h 78 % 0 mm 63 W/m2
13:44 7.8 °C 4.2 °C 1031.4 hPa West 14.5 km/h 22.5 km/h 78 % 0 mm 62 W/m2
13:49 7.8 °C 4.2 °C 1031.4 hPa West 16.1 km/h 32.2 km/h 78 % 0 mm 56 W/m2
13:54 7.8 °C 4.2 °C 1031.4 hPa WSW 11.3 km/h 19.3 km/h 78 % 0 mm 51 W/m2
13:59 7.8 °C 4.2 °C 1031.4 hPa West 14.5 km/h 25.7 km/h 78 % 0 mm 44 W/m2
14:04 7.8 °C 4.2 °C 1031.4 hPa West 14.5 km/h 22.5 km/h 78 % 0 mm 42 W/m2
14:09 7.8 °C 4.2 °C 1031.4 hPa West 12.9 km/h 20.9 km/h 78 % 0 mm 39 W/m2
14:14 7.8 °C 4.2 °C 1031.4 hPa West 17.7 km/h 29 km/h 78 % 0 mm 40 W/m2
14:19 7.8 °C 4.4 °C 1031.4 hPa West 9.7 km/h 17.7 km/h 79 % 0 mm 37 W/m2
14:24 7.8 °C 4.4 °C 1031.4 hPa WNW 12.9 km/h 24.1 km/h 79 % 0 mm 42 W/m2
14:29 7.8 °C 4.4 °C 1031.4 hPa West 6.4 km/h 16.1 km/h 79 % 0 mm 58 W/m2
14:34 7.8 °C 4.4 °C 1031.4 hPa WSW 9.7 km/h 17.7 km/h 79 % 0 mm 47 W/m2
14:39 7.8 °C 4.2 °C 1031.4 hPa WNW 16.1 km/h 24.1 km/h 78 % 0 mm 47 W/m2
14:44 7.7 °C 4.1 °C 1031.4 hPa West 14.5 km/h 24.1 km/h 78 % 0 mm 49 W/m2
14:49 7.7 °C 4.1 °C 1031.4 hPa WNW 17.7 km/h 29 km/h 78 % 0 mm 63 W/m2
14:54 7.7 °C 4.1 °C 1031.4 hPa WNW 16.1 km/h 32.2 km/h 78 % 0 mm 56 W/m2
14:59 7.7 °C 4.1 °C 1031 hPa West 12.9 km/h 25.7 km/h 78 % 0 mm 56 W/m2
15:04 7.7 °C 4.1 °C 1031 hPa WNW 11.3 km/h 19.3 km/h 78 % 0 mm 51 W/m2
15:09 7.6 °C 4 °C 1031 hPa West 16.1 km/h 24.1 km/h 78 % 0 mm 42 W/m2
15:14 7.6 °C 4 °C 1031 hPa West 8 km/h 17.7 km/h 78 % 0 mm 23 W/m2
15:19 7.6 °C 4 °C 1031 hPa WNW 17.7 km/h 29 km/h 78 % 0 mm 18 W/m2
15:24 7.6 °C 4.2 °C 1031 hPa West 16.1 km/h 22.5 km/h 79 % 0 mm 9 W/m2
15:29 7.6 °C 4.2 °C 1031 hPa West 6.4 km/h 14.5 km/h 79 % 0 mm 7 W/m2
15:34 7.6 °C 4.2 °C 1031 hPa WNW 9.7 km/h 17.7 km/h 79 % 0 mm 5 W/m2
15:39 7.6 °C 4.4 °C 1031.4 hPa West 11.3 km/h 20.9 km/h 80 % 0 mm 5 W/m2
15:44 7.5 °C 4.3 °C 1031.4 hPa West 11.3 km/h 24.1 km/h 80 % 0 mm 0 W/m2
15:49 7.5 °C 4.3 °C 1031.4 hPa WNW 12.9 km/h 17.7 km/h 80 % 0 mm 0 W/m2
15:54 7.4 °C 4.2 °C 1031.4 hPa WNW 12.9 km/h 22.5 km/h 80 % 0 mm 0 W/m2
15:59 7.4 °C 4 °C 1031.4 hPa WNW 14.5 km/h 24.1 km/h 79 % 0 mm 0 W/m2
16:04 7.3 °C 3.9 °C 1031.4 hPa West 16.1 km/h 30.6 km/h 79 % 0 mm 0 W/m2
16:09 7.2 °C 3.8 °C 1031.4 hPa West 19.3 km/h 30.6 km/h 79 % 0 mm 0 W/m2
16:15 7.1 °C 3.7 °C 1031.4 hPa West 14.5 km/h 24.1 km/h 79 % 0 mm 0 W/m2
16:20 7.1 °C 3.7 °C 1031 hPa West 16.1 km/h 25.7 km/h 79 % 0 mm 0 W/m2
16:25 7.1 °C 3.9 °C 1031 hPa West 12.9 km/h 19.3 km/h 80 % 0 mm 0 W/m2
16:30 7 °C 3.8 °C 1031 hPa West 9.7 km/h 17.7 km/h 80 % 0 mm 0 W/m2
16:35 7 °C 3.8 °C 1031 hPa West 8 km/h 14.5 km/h 80 % 0 mm 0 W/m2
16:40 7 °C 3.8 °C 1031 hPa West 12.9 km/h 19.3 km/h 80 % 0 mm 0 W/m2
16:45 7 °C 3.8 °C 1031 hPa West 8 km/h 14.5 km/h 80 % 0 mm 0 W/m2
16:50 7 °C 3.8 °C 1031 hPa West 9.7 km/h 16.1 km/h 80 % 0 mm 0 W/m2
16:55 7 °C 3.8 °C 1031 hPa WSW 9.7 km/h 20.9 km/h 80 % 0 mm 0 W/m2
17:00 7 °C 3.9 °C 1031 hPa WSW 8 km/h 14.5 km/h 81 % 0 mm 0 W/m2
17:01 7 °C 3.9 °C 1031 hPa WSW 9.7 km/h 17.7 km/h 81 % 0 mm 0 W/m2
17:06 7 °C 3.8 °C 1031 hPa West 12.9 km/h 22.5 km/h 80 % 0 mm 0 W/m2
17:11 7 °C 3.9 °C 1031 hPa West 14.5 km/h 25.7 km/h 81 % 0 mm 0 W/m2
17:16 7 °C 3.9 °C 1031 hPa West 11.3 km/h 25.7 km/h 81 % 0 mm 0 W/m2
17:21 7 °C 3.9 °C 1031 hPa West 9.7 km/h 20.9 km/h 81 % 0 mm 0 W/m2
17:26 7 °C 3.9 °C 1031 hPa West 9.7 km/h 16.1 km/h 81 % 0 mm 0 W/m2
17:31 7 °C 3.9 °C 1030.7 hPa West 11.3 km/h 19.3 km/h 81 % 0 mm 0 W/m2
17:36 7 °C 3.9 °C 1030.7 hPa WSW 14.5 km/h 22.5 km/h 81 % 0 mm 0 W/m2
17:41 7.1 °C 4.1 °C 1030.7 hPa WSW 16.1 km/h 25.7 km/h 81 % 0 mm 0 W/m2
17:46 7.1 °C 4.1 °C 1030.7 hPa West 17.7 km/h 29 km/h 81 % 0 mm 0 W/m2
17:51 7.1 °C 4.1 °C 1030.4 hPa West 16.1 km/h 22.5 km/h 81 % 0 mm 0 W/m2
17:56 7.1 °C 4.1 °C 1030.4 hPa West 16.1 km/h 29 km/h 81 % 0 mm 0 W/m2
18:01 7.1 °C 4.1 °C 1030.4 hPa West 14.5 km/h 24.1 km/h 81 % 0 mm 0 W/m2
18:06 7.1 °C 4.2 °C 1030.4 hPa West 14.5 km/h 25.7 km/h 82 % 0 mm 0 W/m2
18:11 7.1 °C 4.2 °C 1030.4 hPa West 14.5 km/h 24.1 km/h 82 % 0 mm 0 W/m2
18:16 7 °C 4.1 °C 1030.4 hPa West 12.9 km/h 19.3 km/h 82 % 0 mm 0 W/m2
18:21 7 °C 4.3 °C 1030.4 hPa West 14.5 km/h 20.9 km/h 83 % 0 mm 0 W/m2
18:26 7 °C 4.3 °C 1030 hPa West 14.5 km/h 22.5 km/h 83 % 0 mm 0 W/m2
18:31 7 °C 4.3 °C 1030 hPa West 14.5 km/h 24.1 km/h 83 % 0 mm 0 W/m2
18:36 7 °C 4.3 °C 1030 hPa West 14.5 km/h 22.5 km/h 83 % 0 mm 0 W/m2
18:41 7.1 °C 4.4 °C 1030 hPa West 16.1 km/h 24.1 km/h 83 % 0 mm 0 W/m2
18:46 7.1 °C 4.4 °C 1030 hPa West 16.1 km/h 24.1 km/h 83 % 0 mm 0 W/m2
18:51 7.1 °C 4.4 °C 1030 hPa West 17.7 km/h 30.6 km/h 83 % 0 mm 0 W/m2
18:56 7.1 °C 4.4 °C 1030 hPa West 16.1 km/h 22.5 km/h 83 % 0 mm 0 W/m2
19:01 7.1 °C 4.2 °C 1030 hPa West 14.5 km/h 22.5 km/h 82 % 0 mm 0 W/m2
19:07 7.1 °C 4.2 °C 1030 hPa West 19.3 km/h 32.2 km/h 82 % 0 mm 0 W/m2
19:12 7.2 °C 4.3 °C 1030 hPa West 16.1 km/h 25.7 km/h 82 % 0 mm 0 W/m2
19:17 7.2 °C 4.3 °C 1030 hPa West 12.9 km/h 20.9 km/h 82 % 0 mm 0 W/m2
19:22 7.1 °C 4.2 °C 1030 hPa West 11.3 km/h 20.9 km/h 82 % 0 mm 0 W/m2
19:27 7.1 °C 4.2 °C 1030 hPa West 16.1 km/h 22.5 km/h 82 % 0 mm 0 W/m2
19:32 7.1 °C 4.2 °C 1030 hPa West 16.1 km/h 25.7 km/h 82 % 0 mm 0 W/m2
19:37 7.1 °C 4.2 °C 1030 hPa West 16.1 km/h 25.7 km/h 82 % 0 mm 0 W/m2
19:42 7.2 °C 4.3 °C 1030 hPa West 19.3 km/h 30.6 km/h 82 % 0 mm 0 W/m2
19:47 7.1 °C 4.2 °C 1030 hPa West 17.7 km/h 25.7 km/h 82 % 0 mm 0 W/m2
19:52 7.1 °C 4.2 °C 1030 hPa West 20.9 km/h 29 km/h 82 % 0 mm 0 W/m2
19:57 7.2 °C 4.3 °C 1030 hPa West 17.7 km/h 29 km/h 82 % 0 mm 0 W/m2
20:02 7.3 °C 4.4 °C 1030 hPa West 20.9 km/h 33.8 km/h 82 % 0 mm 0 W/m2
20:07 7.4 °C 4.3 °C 1029.7 hPa WSW 19.3 km/h 29 km/h 81 % 0 mm 0 W/m2
20:12 7.5 °C 4.4 °C 1029.7 hPa WSW 19.3 km/h 29 km/h 81 % 0 mm 0 W/m2
20:17 7.6 °C 4.6 °C 1029.7 hPa West 16.1 km/h 29 km/h 81 % 0 mm 0 W/m2
20:22 7.6 °C 4.6 °C 1029.3 hPa West 16.1 km/h 24.1 km/h 81 % 0 mm 0 W/m2
20:27 7.6 °C 4.4 °C 1029.3 hPa West 19.3 km/h 30.6 km/h 80 % 0 mm 0 W/m2
20:32 7.7 °C 4.4 °C 1029.7 hPa West 14.5 km/h 22.5 km/h 80 % 0 mm 0 W/m2
20:37 7.7 °C 4.4 °C 1029.7 hPa West 14.5 km/h 22.5 km/h 80 % 0 mm 0 W/m2
20:42 7.7 °C 4.4 °C 1029.7 hPa West 22.5 km/h 37 km/h 80 % 0 mm 0 W/m2
20:47 7.7 °C 4.4 °C 1029.7 hPa WSW 16.1 km/h 22.5 km/h 80 % 0 mm 0 W/m2
20:52 7.8 °C 4.6 °C 1029.7 hPa West 12.9 km/h 19.3 km/h 80 % 0 mm 0 W/m2
20:57 7.7 °C 4.4 °C 1029.7 hPa West 12.9 km/h 19.3 km/h 80 % 0 mm 0 W/m2
21:02 7.8 °C 4.6 °C 1029.7 hPa SW 19.3 km/h 33.8 km/h 80 % 0 mm 0 W/m2
21:07 7.9 °C 4.7 °C 1029.3 hPa West 14.5 km/h 24.1 km/h 80 % 0 mm 0 W/m2
21:12 7.9 °C 4.7 °C 1029.3 hPa WSW 16.1 km/h 24.1 km/h 80 % 0 mm 0 W/m2
21:17 7.9 °C 4.7 °C 1029.7 hPa WSW 14.5 km/h 20.9 km/h 80 % 0 mm 0 W/m2
21:22 8 °C 4.8 °C 1029.7 hPa West 12.9 km/h 19.3 km/h 80 % 0 mm 0 W/m2
21:27 8.1 °C 4.8 °C 1029.7 hPa West 16.1 km/h 22.5 km/h 80 % 0 mm 0 W/m2
21:32 8.1 °C 4.8 °C 1029.3 hPa WSW 14.5 km/h 24.1 km/h 80 % 0 mm 0 W/m2
21:37 8.2 °C 4.8 °C 1029.3 hPa West 14.5 km/h 20.9 km/h 79 % 0 mm 0 W/m2
21:42 8.3 °C 4.9 °C 1029.3 hPa WSW 14.5 km/h 20.9 km/h 79 % 0 mm 0 W/m2
21:47 8.3 °C 4.9 °C 1029.3 hPa West 16.1 km/h 24.1 km/h 79 % 0 mm 0 W/m2
21:52 8.4 °C 4.9 °C 1029.3 hPa West 9.7 km/h 17.7 km/h 79 % 0 mm 0 W/m2
21:57 8.4 °C 4.9 °C 1029 hPa WSW 11.3 km/h 16.1 km/h 79 % 0 mm 0 W/m2
22:02 8.4 °C 4.9 °C 1029 hPa West 14.5 km/h 32.2 km/h 79 % 0 mm 0 W/m2
22:07 8.4 °C 4.9 °C 1029 hPa West 12.9 km/h 20.9 km/h 79 % 0 mm 0 W/m2
22:12 8.4 °C 4.9 °C 1029 hPa WSW 11.3 km/h 19.3 km/h 79 % 0 mm 0 W/m2
22:17 8.4 °C 4.9 °C 1029 hPa West 12.9 km/h 20.9 km/h 79 % 0 mm 0 W/m2
22:22 8.4 °C 5.2 °C 1029 hPa West 14.5 km/h 22.5 km/h 80 % 0 mm 0 W/m2
22:27 8.4 °C 5.2 °C 1029 hPa WSW 17.7 km/h 35.4 km/h 80 % 0 mm 0 W/m2
22:32 8.4 °C 5.3 °C 1029 hPa West 12.9 km/h 22.5 km/h 81 % 0 mm 0 W/m2
22:37 8.4 °C 5.5 °C 1029 hPa West 12.9 km/h 22.5 km/h 82 % 0 mm 0 W/m2
22:42 8.3 °C 5.4 °C 1029 hPa West 6.4 km/h 14.5 km/h 82 % 0 mm 0 W/m2
22:47 8.3 °C 5.4 °C 1029 hPa West 9.7 km/h 22.5 km/h 82 % 0 mm 0 W/m2
22:52 8.2 °C 5.5 °C 1028.7 hPa WSW 4.8 km/h 12.9 km/h 83 % 0 mm 0 W/m2
22:57 8.2 °C 5.5 °C 1028.7 hPa SW 4.8 km/h 11.3 km/h 83 % 0 mm 0 W/m2
23:02 8.1 °C 5.4 °C 1028.7 hPa West 8 km/h 20.9 km/h 83 % 0 mm 0 W/m2
23:07 8.1 °C 5.4 °C 1028.7 hPa WSW 9.7 km/h 19.3 km/h 83 % 0 mm 0 W/m2
23:13 8.1 °C 5.4 °C 1028.7 hPa SW 9.7 km/h 14.5 km/h 83 % 0 mm 0 W/m2
23:18 8.1 °C 5.4 °C 1028.7 hPa SW 12.9 km/h 24.1 km/h 83 % 0 mm 0 W/m2
23:23 8.1 °C 5.4 °C 1028.7 hPa WSW 9.7 km/h 16.1 km/h 83 % 0 mm 0 W/m2
23:28 8.2 °C 5.5 °C 1028.7 hPa WSW 11.3 km/h 17.7 km/h 83 % 0 mm 0 W/m2
23:33 8.2 °C 5.5 °C 1028.7 hPa WSW 11.3 km/h 19.3 km/h 83 % 0 mm 0 W/m2
23:38 8.2 °C 5.5 °C 1028.7 hPa West 9.7 km/h 22.5 km/h 83 % 0 mm 0 W/m2
23:43 8.2 °C 5.5 °C 1028.7 hPa West 11.3 km/h 20.9 km/h 83 % 0 mm 0 W/m2
23:48 8.2 °C 5.5 °C 1028.3 hPa West 12.9 km/h 17.7 km/h 83 % 0 mm 0 W/m2
23:53 8.1 °C 5.4 °C 1028.3 hPa West 14.5 km/h 24.1 km/h 83 % 0 mm 0 W/m2
23:58 8.1 °C 5.4 °C 1028.3 hPa WSW 11.3 km/h 22.5 km/h 83 % 0 mm 0 W/m2
Delerius-Weather
Compliments of Weather Underground - 2.25 mb

Data updates at regular intervals.